TFM - Tactical Decision Aid
ID: Runway Winds: CIG/VIS Threshold:

KFST - Fort Stockton/Pecos, TX, US

Updated at: 1353 UTC 26 Feb 2021
Latest TAF at: 1120 UTC 26 Feb 2021

TAF Board

Time1253Z 26/14Z 26/15Z 26/16Z 26/17Z 26/18Z 26/19Z 26/20Z 26/21Z 26/22Z 26/23Z 27/00Z 27/01Z 27/02Z>>
Type OBS PRVL PRVL PRVL PRVL PRVL PRVL PRVL PRVL PRVL PRVL PRVL PRVL PRVL
VIS 10 >6 >6 >6 >6 >6 >6 >6 >6 >6 >6 >6 >6 >6
CIG -- -- -- -- -- -- -- -- -- -- -- -- -- --
Cover CLR SCT SCT SCT SCT SCT SCT SCT SCT SCT SCT SCT SCT SCT
FltCat VFR VFR VFR VFR VFR VFR VFR VFR VFR VFR VFR VFR VFR VFR
WX -- -- -- -- -- -- -- -- -- -- -- -- -- --
WDir 170 200 200 200 200 200 200 200 200 200 200 200 200 200
WSpd 4 8 8 8 8 8 8 8 8 8 8 8 8 8
WGst -- -- -- -- -- -- -- -- -- -- -- -- -- --

TDA Impact Legend

  None Marginal Slight Moderate High
Visibility (sm) >5 3≤X≤5 2≤X<3 1≤X<2 <1
Ceiling (100 ft) >30 10≤X≤30 8≤X<10 3≤X<8 <3
Wind Speed (kt) <15 15≤X<25 25≤X<30 ≥30
Wind Gust (kt) <15 15≤X<25 25≤X<35 ≥35
Weather No Wx Reported VCTS -TS,-FZRA TS,FZRA +TS,+FZRA
TAF
KFST 261120Z 2612/2712 20008KT P6SM SCT250

METAR
KFST 261253Z AUTO 17004KT 10SM CLR 00/M03 A2999 RMK AO2 SLP141 T00001028
KFST 261153Z AUTO 22006KT 10SM CLR 00/M02 A3002 RMK AO2 SLP149 T00001022 10044 20000 55012
KFST 261053Z AUTO 20004KT 10SM CLR 00/M02 A3001 RMK AO2 SLP147 T00001022

Radar Display
Forecast Discussion